VOE69 LIRP-LMML
Flight info
| Callsign | VOE69 |
|---|---|
| Flight time | 1h 19m |
| Altitude | 19000 |
| Route | DOCME M729 ELB/N0439F370 DCT VELAD DCT TINTO DCT POKAV DCT GIANO DCT MARON DCT EKOLA L12 GZO |
| Aircraft | A20N/M-SDE2E3FGHIRWXY/LB1 |
Departure
| Time | 2026-05-04 14:37 |
|---|---|
| Airport | Pisa International Airport (LIRP) |
Arrival
| Time | 2026-05-04 15:56 |
|---|---|
| Airport | Malta International Airport (LMML) |
| Time | Latitude | Longitude | Altitude | Speed | Heading |
|---|---|---|---|---|---|
| 2026-05-04 13:55 | 43.69749 | 10.40030 | 27 ft | 0 kts | 9° |
| 2026-05-04 14:26 | 43.69740 | 10.40028 | 27 ft | 2 kts | 9° |
| 2026-05-04 14:26 | 43.69729 | 10.40026 | 27 ft | 1 kts | 9° |
| 2026-05-04 14:27 | 43.69715 | 10.40025 | 26 ft | 2 kts | 342° |
| 2026-05-04 14:27 | 43.69701 | 10.40035 | 26 ft | 2 kts | 317° |
| 2026-05-04 14:27 | 43.69692 | 10.40052 | 26 ft | 2 kts | 291° |
| 2026-05-04 14:27 | 43.69689 | 10.40072 | 26 ft | 2 kts | 266° |
| 2026-05-04 14:28 | 43.69691 | 10.40085 | 26 ft | 0 kts | 250° |
| 2026-05-04 14:28 | 43.69693 | 10.40095 | 26 ft | 0 kts | 247° |
| 2026-05-04 14:28 | 43.69693 | 10.40094 | 26 ft | 0 kts | 247° |
| 2026-05-04 14:32 | 43.69682 | 10.40066 | 26 ft | 5 kts | 225° |
| 2026-05-04 14:32 | 43.69639 | 10.40054 | 26 ft | 7 kts | 173° |
| 2026-05-04 14:32 | 43.69583 | 10.40065 | 26 ft | 8 kts | 171° |
| 2026-05-04 14:32 | 43.69518 | 10.40078 | 26 ft | 9 kts | 171° |
| 2026-05-04 14:33 | 43.69449 | 10.40093 | 26 ft | 10 kts | 172° |
| 2026-05-04 14:33 | 43.69392 | 10.40106 | 25 ft | 5 kts | 158° |
| 2026-05-04 14:33 | 43.69370 | 10.40128 | 26 ft | 4 kts | 134° |
| 2026-05-04 14:33 | 43.69350 | 10.40163 | 26 ft | 4 kts | 126° |
| 2026-05-04 14:34 | 43.69330 | 10.40200 | 26 ft | 0 kts | 126° |
| 2026-05-04 14:34 | 43.69330 | 10.40201 | 26 ft | 0 kts | 126° |
| 2026-05-04 14:34 | 43.69330 | 10.40202 | 26 ft | 0 kts | 126° |
| 2026-05-04 14:35 | 43.69328 | 10.40205 | 26 ft | 1 kts | 126° |
| 2026-05-04 14:35 | 43.69311 | 10.40237 | 26 ft | 4 kts | 126° |
| 2026-05-04 14:35 | 43.69286 | 10.40283 | 26 ft | 8 kts | 127° |
| 2026-05-04 14:35 | 43.69224 | 10.40301 | 26 ft | 11 kts | 209° |
| 2026-05-04 14:36 | 43.69207 | 10.40285 | 26 ft | 3 kts | 215° |
| 2026-05-04 14:36 | 43.68967 | 10.40040 | 24 ft | 80 kts | 217° |
| 2026-05-04 14:36 | 43.68340 | 10.39387 | 22 ft | 142 kts | 216° |
| 2026-05-04 14:36 | 43.67415 | 10.38445 | 181 ft | 177 kts | 216° |
| 2026-05-04 14:37 | 43.66388 | 10.37392 | 662 ft | 191 kts | 215° |
| 2026-05-04 14:37 | 43.65308 | 10.36285 | 1413 ft | 195 kts | 214° |
| 2026-05-04 14:37 | 43.64206 | 10.35158 | 2089 ft | 205 kts | 213° |
| 2026-05-04 14:37 | 43.63048 | 10.33981 | 2812 ft | 211 kts | 213° |
| 2026-05-04 14:38 | 43.61865 | 10.32751 | 3590 ft | 213 kts | 211° |
| 2026-05-04 14:38 | 43.60461 | 10.31980 | 4118 ft | 222 kts | 181° |
| 2026-05-04 14:38 | 43.58888 | 10.32278 | 4609 ft | 237 kts | 165° |
| 2026-05-04 14:38 | 43.57232 | 10.32818 | 5123 ft | 254 kts | 167° |
| 2026-05-04 14:39 | 43.55484 | 10.33254 | 5899 ft | 259 kts | 170° |
| 2026-05-04 14:39 | 43.53680 | 10.33587 | 6758 ft | 261 kts | 172° |
| 2026-05-04 14:39 | 43.51874 | 10.33844 | 7575 ft | 264 kts | 174° |
| 2026-05-04 14:40 | 43.48186 | 10.34235 | 9130 ft | 272 kts | 175° |
| 2026-05-04 14:40 | 43.46276 | 10.34402 | 9895 ft | 276 kts | 176° |
| 2026-05-04 14:40 | 43.44339 | 10.34559 | 10606 ft | 281 kts | 176° |
| 2026-05-04 14:40 | 43.42307 | 10.34713 | 10991 ft | 298 kts | 177° |
| 2026-05-04 14:41 | 43.40185 | 10.34868 | 11403 ft | 313 kts | 177° |
| 2026-05-04 14:41 | 43.37967 | 10.35028 | 12048 ft | 320 kts | 177° |
| 2026-05-04 14:41 | 43.33461 | 10.35352 | 13454 ft | 328 kts | 178° |
| 2026-05-04 14:42 | 43.28820 | 10.35679 | 14751 ft | 337 kts | 179° |
| 2026-05-04 14:42 | 43.26445 | 10.35844 | 15391 ft | 341 kts | 179° |
| 2026-05-04 14:42 | 43.24079 | 10.36008 | 16024 ft | 344 kts | 179° |
| 2026-05-04 14:43 | 43.21692 | 10.36175 | 16654 ft | 348 kts | 179° |
| 2026-05-04 14:43 | 43.19236 | 10.36346 | 17271 ft | 352 kts | 179° |
| 2026-05-04 14:43 | 43.16767 | 10.36519 | 17800 ft | 355 kts | 179° |
| 2026-05-04 14:43 | 43.14296 | 10.36691 | 18058 ft | 356 kts | 179° |
| 2026-05-04 14:44 | 43.11819 | 10.36865 | 18131 ft | 360 kts | 179° |
| 2026-05-04 14:44 | 43.09257 | 10.37042 | 18618 ft | 364 kts | 179° |
| 2026-05-04 14:44 | 43.06702 | 10.37219 | 19332 ft | 363 kts | 179° |
| 2026-05-04 14:44 | 43.04168 | 10.37395 | 19928 ft | 366 kts | 179° |
| 2026-05-04 14:45 | 43.01629 | 10.37570 | 20492 ft | 369 kts | 179° |
| 2026-05-04 14:45 | 42.99013 | 10.37750 | 21053 ft | 372 kts | 179° |
| 2026-05-04 14:45 | 42.96428 | 10.37931 | 21583 ft | 375 kts | 179° |
| 2026-05-04 14:45 | 42.93782 | 10.38117 | 22123 ft | 378 kts | 179° |
| 2026-05-04 14:46 | 42.91141 | 10.38301 | 22670 ft | 381 kts | 179° |
| 2026-05-04 14:46 | 42.88446 | 10.38488 | 23183 ft | 384 kts | 179° |
| 2026-05-04 14:46 | 42.85844 | 10.38672 | 23647 ft | 389 kts | 179° |
| 2026-05-04 14:46 | 42.83122 | 10.38866 | 24140 ft | 392 kts | 180° |
| 2026-05-04 14:47 | 42.80371 | 10.39058 | 24612 ft | 395 kts | 180° |
| 2026-05-04 14:47 | 42.77607 | 10.39250 | 25075 ft | 399 kts | 180° |
| 2026-05-04 14:47 | 42.74793 | 10.39591 | 25535 ft | 404 kts | 175° |
| 2026-05-04 14:47 | 42.72016 | 10.40364 | 25980 ft | 411 kts | 169° |
| 2026-05-04 14:48 | 42.69255 | 10.41595 | 26406 ft | 418 kts | 163° |
| 2026-05-04 14:48 | 42.66500 | 10.43098 | 26838 ft | 422 kts | 162° |
| 2026-05-04 14:48 | 42.63775 | 10.44650 | 27211 ft | 426 kts | 162° |
| 2026-05-04 14:48 | 42.61032 | 10.46219 | 27572 ft | 430 kts | 162° |
| 2026-05-04 14:49 | 42.58260 | 10.47798 | 27938 ft | 433 kts | 162° |
| 2026-05-04 14:49 | 42.55426 | 10.49405 | 28288 ft | 437 kts | 163° |
| 2026-05-04 14:49 | 42.52634 | 10.50984 | 28651 ft | 439 kts | 163° |
| 2026-05-04 14:49 | 42.49777 | 10.52594 | 28985 ft | 442 kts | 163° |
| 2026-05-04 14:50 | 42.46919 | 10.54199 | 29288 ft | 445 kts | 163° |
| 2026-05-04 14:50 | 42.43971 | 10.55853 | 29601 ft | 448 kts | 163° |
| 2026-05-04 14:50 | 42.41102 | 10.57463 | 29895 ft | 451 kts | 164° |
| 2026-05-04 14:50 | 42.38174 | 10.59102 | 30195 ft | 453 kts | 164° |
| 2026-05-04 14:51 | 42.35274 | 10.60721 | 30531 ft | 454 kts | 164° |
| 2026-05-04 14:51 | 42.32304 | 10.62381 | 30960 ft | 453 kts | 164° |
| 2026-05-04 14:51 | 42.29379 | 10.64016 | 31362 ft | 452 kts | 164° |
| 2026-05-04 14:51 | 42.26489 | 10.65628 | 31723 ft | 452 kts | 165° |
| 2026-05-04 14:52 | 42.23542 | 10.67271 | 32095 ft | 451 kts | 165° |
| 2026-05-04 14:52 | 42.21188 | 10.68582 | 32397 ft | 450 kts | 165° |
| 2026-05-04 14:52 | 42.18100 | 10.70300 | 32789 ft | 449 kts | 165° |
| 2026-05-04 14:52 | 42.15255 | 10.71881 | 33144 ft | 447 kts | 165° |
| 2026-05-04 14:53 | 42.12335 | 10.73503 | 33458 ft | 447 kts | 165° |
| 2026-05-04 14:53 | 42.09409 | 10.75123 | 33786 ft | 446 kts | 165° |
| 2026-05-04 14:53 | 42.06524 | 10.76721 | 34069 ft | 446 kts | 165° |
| 2026-05-04 14:53 | 42.03674 | 10.78298 | 34358 ft | 446 kts | 165° |
| 2026-05-04 14:54 | 42.00783 | 10.79895 | 34679 ft | 445 kts | 165° |
| 2026-05-04 14:54 | 41.97858 | 10.81509 | 34969 ft | 444 kts | 165° |
| 2026-05-04 14:54 | 41.95031 | 10.83069 | 35220 ft | 444 kts | 165° |
| 2026-05-04 14:54 | 41.92160 | 10.84652 | 35493 ft | 444 kts | 165° |
| 2026-05-04 14:55 | 41.89307 | 10.86220 | 35734 ft | 444 kts | 165° |
| 2026-05-04 14:55 | 41.86421 | 10.87809 | 35930 ft | 445 kts | 165° |
| 2026-05-04 14:55 | 41.83604 | 10.89357 | 36170 ft | 444 kts | 165° |
| 2026-05-04 14:55 | 41.80745 | 10.90928 | 36405 ft | 444 kts | 165° |
| 2026-05-04 14:56 | 41.77869 | 10.92506 | 36611 ft | 444 kts | 165° |
| 2026-05-04 14:56 | 41.74921 | 10.94122 | 36838 ft | 443 kts | 165° |
| 2026-05-04 14:56 | 41.72102 | 10.95665 | 37048 ft | 443 kts | 165° |
| 2026-05-04 14:56 | 41.69246 | 10.97228 | 37077 ft | 445 kts | 165° |
| 2026-05-04 14:57 | 41.63436 | 11.00400 | 37084 ft | 446 kts | 165° |
| 2026-05-04 14:57 | 41.57686 | 11.03536 | 37086 ft | 446 kts | 164° |
| 2026-05-04 14:58 | 41.51861 | 11.06707 | 37085 ft | 446 kts | 165° |
| 2026-05-04 14:58 | 41.46149 | 11.09808 | 37089 ft | 447 kts | 164° |
| 2026-05-04 14:59 | 41.40300 | 11.12975 | 37087 ft | 448 kts | 164° |
| 2026-05-04 15:00 | 41.31608 | 11.17676 | 37090 ft | 449 kts | 164° |
| 2026-05-04 15:00 | 41.25799 | 11.20810 | 37088 ft | 448 kts | 164° |
| 2026-05-04 15:01 | 41.17027 | 11.25531 | 37091 ft | 448 kts | 164° |
| 2026-05-04 15:01 | 41.11276 | 11.28617 | 37092 ft | 450 kts | 164° |
| 2026-05-04 15:02 | 41.05362 | 11.31787 | 37095 ft | 450 kts | 164° |
| 2026-05-04 15:02 | 40.99577 | 11.34880 | 37098 ft | 450 kts | 164° |
| 2026-05-04 15:03 | 40.93672 | 11.38032 | 37105 ft | 451 kts | 164° |
| 2026-05-04 15:03 | 40.87946 | 11.41084 | 37108 ft | 450 kts | 163° |
| 2026-05-04 15:04 | 40.81946 | 11.44272 | 37113 ft | 450 kts | 164° |
| 2026-05-04 15:04 | 40.76169 | 11.47335 | 37110 ft | 452 kts | 163° |
| 2026-05-04 15:05 | 40.70233 | 11.50482 | 37116 ft | 452 kts | 164° |
| 2026-05-04 15:05 | 40.64405 | 11.53562 | 37111 ft | 453 kts | 163° |
| 2026-05-04 15:06 | 40.58468 | 11.56692 | 37116 ft | 453 kts | 163° |
| 2026-05-04 15:07 | 40.49669 | 11.61327 | 37125 ft | 452 kts | 163° |
| 2026-05-04 15:07 | 40.43755 | 11.64431 | 37117 ft | 453 kts | 163° |
| 2026-05-04 15:08 | 40.37876 | 11.67513 | 37117 ft | 453 kts | 164° |
| 2026-05-04 15:08 | 40.32021 | 11.70576 | 37123 ft | 454 kts | 164° |
| 2026-05-04 15:09 | 40.26085 | 11.73676 | 37122 ft | 453 kts | 164° |
| 2026-05-04 15:09 | 40.20235 | 11.76724 | 37122 ft | 454 kts | 163° |
| 2026-05-04 15:10 | 40.11359 | 11.81342 | 37121 ft | 454 kts | 163° |
| 2026-05-04 15:11 | 40.02507 | 11.85929 | 37123 ft | 455 kts | 163° |
| 2026-05-04 15:11 | 39.96556 | 11.89010 | 37124 ft | 455 kts | 163° |
| 2026-05-04 15:12 | 39.90613 | 11.92077 | 37122 ft | 455 kts | 163° |
| 2026-05-04 15:12 | 39.84870 | 11.95038 | 37111 ft | 455 kts | 163° |
| 2026-05-04 15:13 | 39.78851 | 11.98136 | 37113 ft | 455 kts | 163° |
| 2026-05-04 15:13 | 39.72937 | 12.01170 | 37117 ft | 455 kts | 163° |
| 2026-05-04 15:14 | 39.66976 | 12.04228 | 37121 ft | 455 kts | 163° |
| 2026-05-04 15:14 | 39.61082 | 12.07242 | 37113 ft | 455 kts | 163° |
| 2026-05-04 15:15 | 39.55153 | 12.10270 | 37117 ft | 455 kts | 163° |
| 2026-05-04 15:15 | 39.49237 | 12.13284 | 37124 ft | 455 kts | 163° |
| 2026-05-04 15:16 | 39.40327 | 12.17817 | 37116 ft | 454 kts | 163° |
| 2026-05-04 15:17 | 39.31402 | 12.22343 | 37125 ft | 456 kts | 163° |
| 2026-05-04 15:17 | 39.22564 | 12.26813 | 37122 ft | 456 kts | 163° |
| 2026-05-04 15:18 | 39.16590 | 12.29833 | 37116 ft | 455 kts | 163° |
| 2026-05-04 15:19 | 39.07670 | 12.34324 | 37108 ft | 456 kts | 163° |
| 2026-05-04 15:19 | 38.98846 | 12.38757 | 37109 ft | 456 kts | 163° |
| 2026-05-04 15:20 | 38.92866 | 12.41757 | 37111 ft | 455 kts | 163° |
| 2026-05-04 15:20 | 38.87000 | 12.44820 | 37109 ft | 457 kts | 159° |
| 2026-05-04 15:21 | 38.81320 | 12.48635 | 37114 ft | 460 kts | 155° |
| 2026-05-04 15:22 | 38.72878 | 12.54640 | 37113 ft | 460 kts | 154° |
| 2026-05-04 15:22 | 38.64465 | 12.60589 | 37113 ft | 460 kts | 155° |
| 2026-05-04 15:23 | 38.58831 | 12.64556 | 37116 ft | 461 kts | 154° |
| 2026-05-04 15:23 | 38.53181 | 12.68531 | 37117 ft | 460 kts | 155° |
| 2026-05-04 15:24 | 38.41869 | 12.76458 | 37118 ft | 461 kts | 155° |
| 2026-05-04 15:25 | 38.36221 | 12.80409 | 37119 ft | 461 kts | 155° |
| 2026-05-04 15:26 | 38.27719 | 12.86337 | 37122 ft | 461 kts | 155° |
| 2026-05-04 15:26 | 38.19290 | 12.92202 | 37123 ft | 461 kts | 155° |
| 2026-05-04 15:27 | 38.10788 | 12.98102 | 37130 ft | 461 kts | 156° |
| 2026-05-04 15:28 | 38.02265 | 13.03998 | 37151 ft | 461 kts | 155° |
| 2026-05-04 15:29 | 37.93741 | 13.09880 | 37149 ft | 461 kts | 155° |
| 2026-05-04 15:30 | 37.82143 | 13.17848 | 34187 ft | 479 kts | 155° |
| 2026-05-04 15:30 | 37.73380 | 13.23860 | 32138 ft | 480 kts | 154° |
| 2026-05-04 15:31 | 37.67459 | 13.27912 | 30730 ft | 481 kts | 154° |
| 2026-05-04 15:31 | 37.64507 | 13.29930 | 30000 ft | 482 kts | 153° |
| 2026-05-04 15:32 | 37.55601 | 13.36011 | 28031 ft | 478 kts | 153° |
| 2026-05-04 15:32 | 37.49839 | 13.39939 | 27199 ft | 464 kts | 154° |
| 2026-05-04 15:33 | 37.44209 | 13.43765 | 26333 ft | 453 kts | 154° |
| 2026-05-04 15:34 | 37.35964 | 13.49357 | 25042 ft | 439 kts | 154° |
| 2026-05-04 15:34 | 37.33272 | 13.51181 | 24615 ft | 435 kts | 154° |
| 2026-05-04 15:34 | 37.27951 | 13.54777 | 23779 ft | 427 kts | 154° |
| 2026-05-04 15:35 | 37.22761 | 13.58283 | 22973 ft | 419 kts | 154° |
| 2026-05-04 15:35 | 37.20173 | 13.60030 | 22561 ft | 416 kts | 154° |
| 2026-05-04 15:35 | 37.17624 | 13.61747 | 22129 ft | 413 kts | 153° |
| 2026-05-04 15:36 | 37.12586 | 13.65078 | 21250 ft | 408 kts | 157° |
| 2026-05-04 15:36 | 37.09970 | 13.66539 | 20803 ft | 404 kts | 160° |
| 2026-05-04 15:36 | 37.07373 | 13.67880 | 20380 ft | 401 kts | 160° |
| 2026-05-04 15:37 | 37.04781 | 13.69208 | 19951 ft | 398 kts | 160° |
| 2026-05-04 15:37 | 37.02245 | 13.70506 | 19529 ft | 396 kts | 160° |
| 2026-05-04 15:37 | 36.99687 | 13.71817 | 19104 ft | 393 kts | 160° |
| 2026-05-04 15:37 | 36.97122 | 13.73134 | 18678 ft | 390 kts | 160° |
| 2026-05-04 15:38 | 36.94637 | 13.74410 | 18266 ft | 388 kts | 160° |
| 2026-05-04 15:38 | 36.92160 | 13.75681 | 17848 ft | 385 kts | 160° |
| 2026-05-04 15:38 | 36.89682 | 13.76952 | 17443 ft | 383 kts | 160° |
| 2026-05-04 15:38 | 36.87271 | 13.78189 | 17027 ft | 380 kts | 160° |
| 2026-05-04 15:39 | 36.84833 | 13.79438 | 16608 ft | 378 kts | 159° |
| 2026-05-04 15:39 | 36.82412 | 13.80678 | 16194 ft | 376 kts | 159° |
| 2026-05-04 15:39 | 36.77578 | 13.83152 | 15352 ft | 371 kts | 159° |
| 2026-05-04 15:40 | 36.75217 | 13.84359 | 14945 ft | 368 kts | 159° |
| 2026-05-04 15:40 | 36.72829 | 13.85580 | 14528 ft | 366 kts | 159° |
| 2026-05-04 15:40 | 36.70499 | 13.86770 | 14125 ft | 363 kts | 159° |
| 2026-05-04 15:40 | 36.68141 | 13.87973 | 13715 ft | 361 kts | 159° |
| 2026-05-04 15:41 | 36.65839 | 13.89147 | 13314 ft | 358 kts | 158° |
| 2026-05-04 15:41 | 36.63526 | 13.90327 | 12900 ft | 356 kts | 158° |
| 2026-05-04 15:41 | 36.61261 | 13.91483 | 12495 ft | 353 kts | 158° |
| 2026-05-04 15:41 | 36.58976 | 13.92647 | 12082 ft | 351 kts | 158° |
| 2026-05-04 15:42 | 36.56707 | 13.93801 | 11674 ft | 348 kts | 158° |
| 2026-05-04 15:42 | 36.54487 | 13.94930 | 11267 ft | 346 kts | 158° |
| 2026-05-04 15:42 | 36.52271 | 13.96056 | 10863 ft | 344 kts | 158° |
| 2026-05-04 15:42 | 36.50023 | 13.97179 | 10478 ft | 340 kts | 160° |
| 2026-05-04 15:43 | 36.47840 | 13.98123 | 10346 ft | 327 kts | 161° |
| 2026-05-04 15:43 | 36.45724 | 13.99011 | 10232 ft | 307 kts | 162° |
| 2026-05-04 15:43 | 36.43745 | 13.99838 | 10123 ft | 296 kts | 162° |
| 2026-05-04 15:43 | 36.41773 | 14.00662 | 9783 ft | 295 kts | 162° |
| 2026-05-04 15:44 | 36.39835 | 14.01472 | 9440 ft | 294 kts | 162° |
| 2026-05-04 15:44 | 36.37906 | 14.02278 | 9104 ft | 293 kts | 162° |
| 2026-05-04 15:44 | 36.35987 | 14.03080 | 8777 ft | 291 kts | 161° |
| 2026-05-04 15:44 | 36.34060 | 14.03886 | 8450 ft | 289 kts | 161° |
| 2026-05-04 15:45 | 36.32144 | 14.04686 | 8136 ft | 287 kts | 161° |
| 2026-05-04 15:45 | 36.30270 | 14.05470 | 7826 ft | 285 kts | 161° |
| 2026-05-04 15:45 | 36.28403 | 14.06250 | 7513 ft | 283 kts | 161° |
| 2026-05-04 15:45 | 36.26526 | 14.07034 | 7192 ft | 282 kts | 161° |
| 2026-05-04 15:46 | 36.24656 | 14.07815 | 6873 ft | 280 kts | 161° |
| 2026-05-04 15:46 | 36.22827 | 14.08579 | 6561 ft | 278 kts | 161° |
| 2026-05-04 15:46 | 36.21002 | 14.09339 | 6249 ft | 276 kts | 161° |
| 2026-05-04 15:46 | 36.19157 | 14.10108 | 5931 ft | 275 kts | 161° |
| 2026-05-04 15:47 | 36.17348 | 14.10861 | 5657 ft | 271 kts | 161° |
| 2026-05-04 15:47 | 36.15620 | 14.11581 | 5577 ft | 255 kts | 160° |
| 2026-05-04 15:47 | 36.14061 | 14.12533 | 5484 ft | 249 kts | 143° |
| 2026-05-04 15:47 | 36.12758 | 14.13938 | 5197 ft | 248 kts | 134° |
| 2026-05-04 15:48 | 36.11548 | 14.15476 | 4912 ft | 247 kts | 133° |
| 2026-05-04 15:48 | 36.10371 | 14.16998 | 4634 ft | 246 kts | 133° |
| 2026-05-04 15:48 | 36.07986 | 14.20034 | 4070 ft | 243 kts | 134° |
| 2026-05-04 15:49 | 36.06801 | 14.21526 | 3804 ft | 241 kts | 134° |
| 2026-05-04 15:49 | 36.05638 | 14.22983 | 3538 ft | 240 kts | 134° |
| 2026-05-04 15:49 | 36.04468 | 14.24446 | 3278 ft | 237 kts | 134° |
| 2026-05-04 15:49 | 36.03301 | 14.25903 | 3068 ft | 232 kts | 135° |
| 2026-05-04 15:50 | 36.02185 | 14.27296 | 2971 ft | 224 kts | 135° |
| 2026-05-04 15:50 | 36.01102 | 14.28645 | 2968 ft | 222 kts | 135° |
| 2026-05-04 15:50 | 36.00031 | 14.29980 | 2944 ft | 208 kts | 134° |
| 2026-05-04 15:50 | 35.99029 | 14.31244 | 2950 ft | 203 kts | 134° |
| 2026-05-04 15:51 | 35.98044 | 14.32505 | 2962 ft | 204 kts | 134° |
| 2026-05-04 15:51 | 35.97065 | 14.33743 | 2963 ft | 204 kts | 135° |
| 2026-05-04 15:51 | 35.96093 | 14.34956 | 3055 ft | 190 kts | 135° |
| 2026-05-04 15:51 | 35.95192 | 14.36072 | 2847 ft | 174 kts | 135° |
| 2026-05-04 15:52 | 35.94366 | 14.37093 | 2609 ft | 162 kts | 135° |
| 2026-05-04 15:52 | 35.93604 | 14.38036 | 2392 ft | 148 kts | 136° |
| 2026-05-04 15:52 | 35.92900 | 14.38906 | 2194 ft | 140 kts | 137° |
| 2026-05-04 15:52 | 35.92205 | 14.39765 | 2029 ft | 139 kts | 136° |
| 2026-05-04 15:53 | 35.91526 | 14.40604 | 1859 ft | 139 kts | 137° |
| 2026-05-04 15:53 | 35.90836 | 14.41457 | 1683 ft | 139 kts | 136° |
| 2026-05-04 15:53 | 35.90168 | 14.42285 | 1500 ft | 137 kts | 137° |
| 2026-05-04 15:53 | 35.89489 | 14.43122 | 1328 ft | 137 kts | 136° |
| 2026-05-04 15:54 | 35.88820 | 14.43952 | 1138 ft | 136 kts | 136° |
| 2026-05-04 15:54 | 35.88139 | 14.44792 | 962 ft | 136 kts | 134° |
| 2026-05-04 15:54 | 35.87497 | 14.45626 | 778 ft | 135 kts | 135° |
| 2026-05-04 15:54 | 35.86820 | 14.46457 | 612 ft | 135 kts | 137° |
| 2026-05-04 15:55 | 35.86146 | 14.47281 | 488 ft | 136 kts | 137° |
| 2026-05-04 15:55 | 35.85472 | 14.48098 | 323 ft | 135 kts | 135° |
| 2026-05-04 15:55 | 35.84836 | 14.48887 | 260 ft | 116 kts | 138° |
| 2026-05-04 15:55 | 35.84383 | 14.49436 | 248 ft | 58 kts | 135° |
| 2026-05-04 15:56 | 35.84234 | 14.49621 | 248 ft | 12 kts | 131° |
| 2026-05-04 15:56 | 35.84233 | 14.49698 | 248 ft | 12 kts | 7° |
| 2026-05-04 15:56 | 35.84320 | 14.49677 | 247 ft | 13 kts | 342° |
| 2026-05-04 15:56 | 35.84390 | 14.49651 | 244 ft | 0 kts | 340° |
| 2026-05-04 15:57 | 35.84391 | 14.49650 | 244 ft | 1 kts | 340° |
| 2026-05-04 15:57 | 35.84420 | 14.49638 | 243 ft | 7 kts | 340° |
| 2026-05-04 15:57 | 35.84484 | 14.49607 | 240 ft | 11 kts | 333° |
| 2026-05-04 15:58 | 35.84541 | 14.49555 | 239 ft | 6 kts | 316° |
| 2026-05-04 15:58 | 35.84575 | 14.49515 | 240 ft | 5 kts | 320° |
| 2026-05-04 15:58 | 35.84587 | 14.49504 | 240 ft | 2 kts | 313° |
| 2026-05-04 15:58 | 35.84594 | 14.49494 | 240 ft | 1 kts | 312° |
| 2026-05-04 15:59 | 35.84602 | 14.49490 | 240 ft | 4 kts | 352° |
| 2026-05-04 15:59 | 35.84633 | 14.49520 | 241 ft | 6 kts | 45° |
| 2026-05-04 15:59 | 35.84665 | 14.49559 | 241 ft | 6 kts | 45° |
| 2026-05-04 15:59 | 35.84699 | 14.49571 | 243 ft | 4 kts | 3° |
| 2026-05-04 16:00 | 35.84721 | 14.49573 | 244 ft | 1 kts | 3° |
| 2026-05-04 16:00 | 35.84737 | 14.49573 | 245 ft | 3 kts | 2° |
| 2026-05-04 16:00 | 35.84764 | 14.49574 | 247 ft | 4 kts | 359° |
| 2026-05-04 16:00 | 35.84774 | 14.49573 | 247 ft | 0 kts | 359° |